Time;durP1;ratioP1;P1;durP2;ratioP2;P2;SDS_P1;SDS_P2;PMS_P1;PMS_P2;Temp;Humidity;BMP_temperature;BMP_pressure;BME280_temperature;BME280_humidity;BME280_pressure;Samples;Min_cycle;Max_cycle;Signal;HPM_P1;HPM_P2
2021/12/06 00:01:14;;;;;;;68.00;38.20;;;;;;;1.83;92.23;101477.72;4955498;28;20248;-77
2021/12/06 00:03:44;;;;;;;78.33;43.57;;;;;;;1.82;92.32;101478.50;4979827;28;20604;-77
2021/12/06 00:06:12;;;;;;;74.03;38.53;;;;;;;1.82;92.14;101470.94;4953310;29;20199;-78
2021/12/06 00:08:37;;;;;;;62.97;33.87;;;;;;;1.83;91.84;101476.88;4972924;28;20189;-77
2021/12/06 00:11:08;;;;;;;58.37;31.13;;;;;;;1.85;92.78;101476.19;4964658;28;20216;-77
2021/12/06 00:13:40;;;;;;;65.83;33.47;;;;;;;1.80;92.68;101472.50;4969680;28;20233;-77
2021/12/06 00:16:11;;;;;;;62.67;33.10;;;;;;;1.81;92.33;101469.19;4985703;28;20228;-78
2021/12/06 00:18:37;;;;;;;61.97;32.87;;;;;;;1.79;92.72;101478.28;4990593;28;20200;-78
2021/12/06 00:21:03;;;;;;;60.47;32.13;;;;;;;1.75;92.04;101476.34;4966024;28;20196;-77
2021/12/06 00:23:29;;;;;;;62.10;34.70;;;;;;;1.74;92.51;101472.09;4980567;28;20719;-77
2021/12/06 00:25:55;;;;;;;60.90;33.33;;;;;;;1.74;93.02;101471.22;4964968;28;20189;-77
2021/12/06 00:28:21;;;;;;;58.07;30.77;;;;;;;1.73;92.91;101471.97;4965665;28;20646;-76
2021/12/06 00:30:47;;;;;;;58.60;32.37;;;;;;;1.70;92.79;101470.13;4965312;29;20189;-77
2021/12/06 00:33:13;;;;;;;60.93;31.73;;;;;;;1.72;93.66;101467.72;4964465;28;20205;-77
2021/12/06 00:35:38;;;;;;;61.40;32.73;;;;;;;1.75;93.44;101465.41;4985930;28;20213;-77
2021/12/06 00:38:03;;;;;;;62.47;32.63;;;;;;;1.73;92.66;101471.97;4964779;28;20189;-79
2021/12/06 00:40:42;;;;;;;59.77;31.33;;;;;;;1.71;93.52;101474.44;4981559;28;20256;-76
2021/12/06 00:43:07;;;;;;;56.67;30.57;;;;;;;1.74;92.30;101476.28;4987865;28;20299;-77
2021/12/06 00:45:34;;;;;;;58.10;32.53;;;;;;;1.74;92.45;101483.84;4966349;28;20208;-77
2021/12/06 00:47:59;;;;;;;61.27;32.13;;;;;;;1.74;93.07;101487.22;4979401;28;20185;-75
2021/12/06 00:50:28;;;;;;;59.57;31.40;;;;;;;1.72;92.50;101495.47;4965621;28;20322;-78
2021/12/06 00:52:55;;;;;;;57.83;32.00;;;;;;;1.74;93.21;101488.91;4948503;29;20690;-77
2021/12/06 00:55:21;;;;;;;56.80;32.03;;;;;;;1.74;93.20;101494.78;4969810;28;20277;-76
2021/12/06 00:57:49;;;;;;;58.00;31.67;;;;;;;1.73;93.06;101498.09;4963615;28;20189;-77
2021/12/06 01:00:21;;;;;;;56.03;31.37;;;;;;;1.74;93.57;101504.03;4979652;28;20194;-77
2021/12/06 01:02:47;;;;;;;57.83;30.77;;;;;;;1.74;93.32;101499.84;4980375;28;20221;-75
2021/12/06 01:05:12;;;;;;;60.93;31.43;;;;;;;1.73;92.71;101512.34;4987633;28;20193;-77
2021/12/06 01:07:38;;;;;;;60.17;32.07;;;;;;;1.72;93.05;101508.97;4964302;29;20199;-77
2021/12/06 01:10:06;;;;;;;58.03;31.23;;;;;;;1.70;92.41;101508.00;4965559;28;20189;-77
2021/12/06 01:12:32;;;;;;;55.50;30.00;;;;;;;1.70;93.65;101514.72;4964434;28;20209;-76
2021/12/06 01:14:57;;;;;;;56.17;31.17;;;;;;;1.70;92.73;101518.09;4964972;28;20244;-77
2021/12/06 01:17:22;;;;;;;61.80;32.77;;;;;;;1.69;93.98;101513.81;4978007;28;20194;-77
2021/12/06 01:19:49;;;;;;;58.90;31.60;;;;;;;1.70;93.04;101527.31;4962544;29;20537;-77
2021/12/06 01:22:27;;;;;;;55.60;30.97;;;;;;;1.70;92.60;101522.28;4962295;28;20271;-77
2021/12/06 01:25:01;;;;;;;54.70;30.47;;;;;;;1.68;92.92;101516.25;4961049;28;20249;-77
2021/12/06 01:27:41;;;;;;;60.50;31.13;;;;;;;1.71;92.93;101516.44;4979893;28;21039;-77
2021/12/06 01:30:24;;;;;;;50.03;29.07;;;;;;;1.69;93.41;101528.97;4964800;29;20211;-77
2021/12/06 01:33:26;;;;;;;53.03;28.60;;;;;;;1.69;93.45;101523.06;4972477;28;20213;-77
2021/12/06 01:41:15;;;;;;;58.93;30.70;;;;;;;1.56;92.47;101528.94;4977224;28;20653;-77
2021/12/06 01:44:11;;;;;;;54.23;29.43;;;;;;;1.50;92.36;101522.59;4976193;28;20351;-77
2021/12/06 01:46:49;;;;;;;53.20;29.93;;;;;;;1.49;91.84;101528.44;4975462;28;20216;-78
2021/12/06 01:49:16;;;;;;;58.43;30.53;;;;;;;1.43;92.98;101531.44;4984623;28;20190;-78
2021/12/06 01:51:43;;;;;;;51.23;28.63;;;;;;;1.38;91.84;101537.81;4968675;28;20189;-78
2021/12/06 01:54:11;;;;;;;52.63;28.23;;;;;;;1.29;92.24;101542.22;4965851;29;20188;-77
2021/12/06 01:56:36;;;;;;;49.10;27.87;;;;;;;1.25;91.64;101557.97;4967634;28;20185;-81
2021/12/06 01:59:03;;;;;;;51.70;28.43;;;;;;;1.24;91.92;101561.22;4961292;29;20570;-76
2021/12/06 02:01:29;;;;;;;52.90;29.77;;;;;;;1.20;91.63;101564.34;4956462;28;20193;-79
2021/12/06 02:03:54;;;;;;;53.47;29.97;;;;;;;1.20;91.92;101559.31;4963926;28;20267;-77
2021/12/06 02:06:22;;;;;;;54.13;29.93;;;;;;;1.17;92.60;101563.25;4969191;29;20188;-78
2021/12/06 02:08:48;;;;;;;53.57;29.37;;;;;;;1.13;92.61;101556.22;4967751;29;20189;-78
2021/12/06 02:11:14;;;;;;;59.93;30.97;;;;;;;1.10;91.99;101564.47;4984639;28;20189;-78
2021/12/06 02:13:49;;;;;;;57.63;30.33;;;;;;;1.07;92.12;101568.44;4969956;29;20671;-78
2021/12/06 02:16:18;;;;;;;53.07;29.73;;;;;;;1.05;92.25;101559.91;4987105;28;20213;-77
2021/12/06 02:18:49;;;;;;;51.60;29.27;;;;;;;0.98;92.77;101563.66;4985211;28;20185;-78
2021/12/06 02:21:31;;;;;;;55.87;29.97;;;;;;;0.95;92.41;101562.53;4967150;28;20216;-78
2021/12/06 02:23:59;;;;;;;52.97;29.13;;;;;;;0.96;91.97;101567.69;4984018;28;20197;-77
2021/12/06 02:26:25;;;;;;;50.33;28.20;;;;;;;0.97;91.88;101568.56;4985006;28;20181;-78
2021/12/06 02:28:51;;;;;;;52.27;28.73;;;;;;;0.92;92.24;101567.41;4985972;28;20306;-79
2021/12/06 02:31:22;;;;;;;48.93;27.93;;;;;;;0.90;92.32;101566.41;4970421;28;20182;-77
2021/12/06 02:33:49;;;;;;;47.97;26.60;;;;;;;0.85;91.55;101568.59;4970641;28;20224;-77
2021/12/06 02:36:17;;;;;;;51.03;26.70;;;;;;;0.80;92.11;101569.06;4971241;28;20209;-78
2021/12/06 02:38:43;;;;;;;50.50;28.33;;;;;;;0.72;92.17;101567.66;4960900;28;20289;-78
2021/12/06 02:41:09;;;;;;;56.10;29.17;;;;;;;0.70;91.42;101572.59;4976867;28;20253;-78
2021/12/06 02:43:36;;;;;;;56.50;29.10;;;;;;;0.65;91.92;101571.41;4985449;28;20515;-78
2021/12/06 02:46:03;;;;;;;47.83;26.97;;;;;;;0.61;91.45;101571.97;4969854;29;20193;-78
2021/12/06 02:48:29;;;;;;;49.70;27.23;;;;;;;0.56;91.31;101568.25;5000006;28;20649;-78
2021/12/06 02:50:57;;;;;;;54.57;28.43;;;;;;;0.58;91.56;101571.72;5006523;28;20184;-77
2021/12/06 02:53:25;;;;;;;50.20;26.90;;;;;;;0.57;92.24;101564.94;4990729;28;20414;-78
2021/12/06 02:55:54;;;;;;;50.77;26.93;;;;;;;0.57;91.95;101565.81;5005001;28;20251;-77
2021/12/06 02:58:55;;;;;;;53.07;27.93;;;;;;;0.57;92.56;101569.97;4988463;28;20189;-78
2021/12/06 03:01:30;;;;;;;55.90;28.67;;;;;;;0.53;91.61;101573.06;4960600;29;20189;-77
2021/12/06 03:03:57;;;;;;;50.27;28.77;;;;;;;0.51;92.08;101579.63;4959155;29;20191;-77
2021/12/06 03:06:24;;;;;;;58.20;29.20;;;;;;;0.51;92.21;101578.75;4957989;29;20559;-77
2021/12/06 03:08:59;;;;;;;54.10;29.40;;;;;;;0.46;92.50;101573.38;4976840;28;20201;-78
2021/12/06 03:11:35;;;;;;;53.97;30.03;;;;;;;0.45;92.07;101578.34;4959587;29;20195;-76
2021/12/06 03:14:01;;;;;;;51.60;26.93;;;;;;;0.43;92.63;101573.19;4958086;29;20192;-77
2021/12/06 03:16:27;;;;;;;48.00;27.23;;;;;;;0.36;92.03;101576.00;4955494;29;20593;-77
2021/12/06 03:18:55;;;;;;;53.70;29.00;;;;;;;0.35;92.81;101579.31;4954855;29;20239;-78
2021/12/06 03:21:22;;;;;;;51.57;27.53;;;;;;;0.32;92.33;101574.94;4956623;28;20247;-76
2021/12/06 03:23:50;;;;;;;52.80;28.50;;;;;;;0.34;92.35;101577.56;4956704;28;20288;-76
2021/12/06 03:26:16;;;;;;;49.87;28.13;;;;;;;0.31;92.57;101576.47;4973074;28;20192;-77
2021/12/06 03:28:44;;;;;;;51.77;27.50;;;;;;;0.32;92.73;101583.25;4955637;28;20200;-77
2021/12/06 03:31:12;;;;;;;51.30;27.83;;;;;;;0.31;92.23;101587.41;4972607;28;20219;-77
2021/12/06 03:33:41;;;;;;;49.00;28.30;;;;;;;0.28;92.91;101581.28;4958473;28;20308;-77
2021/12/06 03:36:08;;;;;;;57.27;29.23;;;;;;;0.24;92.20;101586.09;4956019;28;20221;-78
2021/12/06 03:38:35;;;;;;;52.40;28.97;;;;;;;0.26;92.84;101593.75;4967465;28;20188;-77
2021/12/06 03:41:03;;;;;;;50.37;28.63;;;;;;;0.24;93.25;101595.31;4967608;28;20659;-76
2021/12/06 03:43:28;;;;;;;58.20;29.80;;;;;;;0.26;93.54;101592.91;4968433;28;20299;-76
2021/12/06 03:45:53;;;;;;;54.87;29.63;;;;;;;0.22;92.74;101594.31;4968382;28;20210;-78
2021/12/06 03:48:19;;;;;;;54.70;29.23;;;;;;;0.20;93.29;101604.25;4968869;28;20272;-78
2021/12/06 03:50:45;;;;;;;55.40;29.77;;;;;;;0.22;93.52;101603.50;4967663;28;20196;-77
2021/12/06 03:53:12;;;;;;;59.40;30.77;;;;;;;0.22;93.10;101606.88;4950542;28;20236;-77
2021/12/06 03:55:37;;;;;;;56.70;29.53;;;;;;;0.22;93.06;101606.88;4967988;28;20711;-78
2021/12/06 03:58:03;;;;;;;52.73;28.73;;;;;;;0.22;93.28;101611.91;4968064;28;20215;-77
2021/12/06 04:00:29;;;;;;;56.60;30.03;;;;;;;0.20;93.59;101614.31;4974813;28;20231;-77
2021/12/06 04:02:57;;;;;;;60.07;29.43;;;;;;;0.19;93.65;101610.06;4966982;28;20221;-77
2021/12/06 04:05:22;;;;;;;61.23;32.10;;;;;;;0.17;94.14;101611.59;4961210;29;21034;-77
2021/12/06 04:07:48;;;;;;;59.27;31.20;;;;;;;0.19;93.59;101624.31;4956974;29;20197;-78
2021/12/06 04:10:14;;;;;;;64.13;32.30;;;;;;;0.18;93.62;101627.56;4956713;29;20185;-77
2021/12/06 04:12:40;;;;;;;63.70;31.87;;;;;;;0.17;94.23;101624.97;4975935;28;20332;-79
2021/12/06 04:15:09;;;;;;;60.17;32.43;;;;;;;0.15;94.39;101632.41;4962979;28;20301;-77
2021/12/06 04:17:36;;;;;;;59.40;31.43;;;;;;;0.14;94.46;101640.72;4961883;29;20397;-77
2021/12/06 04:20:05;;;;;;;58.70;30.87;;;;;;;0.14;94.26;101645.75;4957723;29;20193;-78
2021/12/06 04:22:30;;;;;;;60.20;29.37;;;;;;;0.14;94.16;101648.28;4979198;28;20205;-77
2021/12/06 04:25:00;;;;;;;59.67;31.00;;;;;;;0.16;94.98;101641.69;4956932;29;20189;-78
2021/12/06 04:27:25;;;;;;;59.13;30.27;;;;;;;0.22;94.83;101638.75;4961486;29;20189;-78
2021/12/06 04:29:52;;;;;;;56.87;29.50;;;;;;;0.22;94.93;101637.09;4943131;29;20185;-78
2021/12/06 04:32:21;;;;;;;63.40;31.20;;;;;;;0.21;95.24;101642.91;4955275;28;20255;-78
2021/12/06 04:34:47;;;;;;;63.17;30.70;;;;;;;0.18;95.05;101641.03;4954230;29;20219;-78
2021/12/06 04:37:13;;;;;;;56.10;30.17;;;;;;;0.17;95.00;101652.66;4955199;29;20532;-77
2021/12/06 04:39:40;;;;;;;51.47;27.40;;;;;;;0.13;94.85;101645.63;4971156;28;20195;-77
2021/12/06 04:42:07;;;;;;;57.47;29.27;;;;;;;0.06;94.89;101660.28;4954463;28;20833;-78
2021/12/06 04:44:32;;;;;;;53.23;28.77;;;;;;;0.07;94.55;101656.13;4954485;29;20192;-77
2021/12/06 04:46:58;;;;;;;55.53;28.93;;;;;;;0.05;94.43;101653.50;4952924;29;20260;-78
2021/12/06 04:49:26;;;;;;;54.27;28.30;;;;;;;0.03;94.41;101657.56;4953422;28;20279;-78
2021/12/06 04:51:56;;;;;;;50.83;27.83;;;;;;;0.03;94.08;101654.16;4979296;28;20205;-77
2021/12/06 04:54:26;;;;;;;52.23;28.27;;;;;;;-0.02;94.41;101656.34;4968343;28;20189;-79
2021/12/06 04:57:20;;;;;;;53.80;29.30;;;;;;;-0.02;94.31;101660.47;4982812;28;20257;-78
2021/12/06 04:59:50;;;;;;;54.27;27.97;;;;;;;-0.05;93.67;101661.13;4973725;28;20270;-78
2021/12/06 05:02:24;;;;;;;49.30;26.37;;;;;;;-0.04;94.28;101662.88;4969946;29;20208;-78
2021/12/06 05:04:56;;;;;;;50.77;26.60;;;;;;;0.00;93.88;101656.47;4970791;28;20168;-78
2021/12/06 05:07:30;;;;;;;50.20;26.23;;;;;;;0.00;93.79;101664.00;4969682;29;20197;-79
2021/12/06 05:09:56;;;;;;;53.27;27.67;;;;;;;-0.06;93.69;101664.41;4963825;28;20185;-77
2021/12/06 05:12:24;;;;;;;48.50;25.83;;;;;;;-0.05;94.38;101672.81;4961201;28;20264;-77
2021/12/06 05:14:49;;;;;;;51.27;26.40;;;;;;;-0.09;93.45;101691.00;4968456;28;20222;-78
2021/12/06 05:17:15;;;;;;;48.63;26.77;;;;;;;-0.11;93.44;101692.50;4985513;28;20649;-78
2021/12/06 05:19:40;;;;;;;46.80;26.20;;;;;;;-0.12;93.29;101693.28;4970305;29;20208;-78
2021/12/06 05:22:07;;;;;;;44.37;23.70;;;;;;;-0.17;93.66;101695.44;4984120;28;20219;-78
2021/12/06 05:24:33;;;;;;;44.27;25.23;;;;;;;-0.15;93.61;101698.97;4985218;28;20217;-77
2021/12/06 05:26:59;;;;;;;48.13;25.30;;;;;;;-0.09;93.99;101698.56;4960126;28;20196;-77
2021/12/06 05:29:29;;;;;;;44.53;25.53;;;;;;;-0.11;93.79;101702.56;4959436;28;20619;-77
2021/12/06 05:31:57;;;;;;;49.03;27.00;;;;;;;-0.16;93.99;101704.75;4961705;29;20309;-77
2021/12/06 05:34:35;;;;;;;56.93;29.80;;;;;;;-0.18;93.36;101707.94;4962280;28;20200;-77
2021/12/06 05:37:02;;;;;;;52.50;26.87;;;;;;;-0.18;93.62;101701.22;4965080;28;20208;-77
2021/12/06 05:39:30;;;;;;;47.13;26.00;;;;;;;-0.14;93.93;101704.84;4976608;28;20193;-77
2021/12/06 05:42:02;;;;;;;45.60;25.23;;;;;;;-0.15;93.24;101718.19;4959542;28;20215;-77
2021/12/06 05:44:28;;;;;;;50.00;26.40;;;;;;;-0.16;93.93;101727.41;4959704;29;20205;-77
2021/12/06 05:46:54;;;;;;;52.13;27.27;;;;;;;-0.14;93.87;101737.56;4959035;28;20629;-78
2021/12/06 05:49:19;;;;;;;54.43;30.00;;;;;;;-0.14;94.11;101748.50;4960302;29;20368;-77
2021/12/06 05:51:45;;;;;;;53.20;29.80;;;;;;;-0.12;94.16;101746.13;4959977;28;20220;-77
2021/12/06 05:54:10;;;;;;;47.90;25.80;;;;;;;-0.11;93.92;101738.69;4961782;28;20176;-77
2021/12/06 05:56:35;;;;;;;45.57;23.97;;;;;;;-0.08;93.64;101738.03;4962676;28;20745;-77
2021/12/06 05:59:01;;;;;;;42.20;24.13;;;;;;;-0.05;93.12;101745.81;4995755;28;20212;-77
2021/12/06 06:01:30;;;;;;;47.33;25.53;;;;;;;-0.06;94.24;101744.06;4981988;28;20733;-76
2021/12/06 06:04:00;;;;;;;49.80;25.70;;;;;;;-0.04;93.79;101758.50;4997209;28;20193;-77
2021/12/06 06:06:28;;;;;;;51.00;26.63;;;;;;;-0.05;94.17;101763.41;4975412;28;20421;-78
2021/12/06 06:08:53;;;;;;;51.07;26.20;;;;;;;-0.03;93.95;101766.94;4961604;28;20204;-77
2021/12/06 06:11:19;;;;;;;46.40;25.33;;;;;;;-0.04;94.04;101760.16;4978197;28;20276;-78
2021/12/06 06:13:44;;;;;;;45.87;26.13;;;;;;;-0.04;93.38;101768.56;4969263;28;20236;-77
2021/12/06 06:16:09;;;;;;;66.70;35.60;;;;;;;-0.04;93.38;101766.06;4977585;28;20220;-77
2021/12/06 06:18:35;;;;;;;54.60;29.37;;;;;;;-0.04;93.12;101768.56;4960547;29;20201;-77
2021/12/06 06:21:00;;;;;;;49.10;25.90;;;;;;;-0.03;93.71;101769.47;4975449;28;20212;-77
2021/12/06 06:23:26;;;;;;;48.73;25.60;;;;;;;-0.04;93.41;101767.72;4976680;28;20301;-77
2021/12/06 06:25:51;;;;;;;42.90;25.13;;;;;;;-0.03;93.90;101766.94;4976749;28;20193;-77
2021/12/06 06:28:17;;;;;;;51.70;26.37;;;;;;;-0.01;93.80;101761.25;4961156;28;20197;-77
2021/12/06 06:30:43;;;;;;;45.30;24.63;;;;;;;-0.01;93.24;101765.41;4959700;29;20201;-77
2021/12/06 06:33:09;;;;;;;53.40;26.80;;;;;;;0.00;93.43;101763.00;4960625;28;20201;-77
2021/12/06 06:35:35;;;;;;;44.30;24.53;;;;;;;0.05;93.55;101771.78;4960582;28;20821;-77
2021/12/06 06:38:01;;;;;;;45.97;24.83;;;;;;;0.06;94.53;101776.03;4959612;28;20260;-76
2021/12/06 06:40:27;;;;;;;47.70;24.27;;;;;;;0.06;94.32;101785.25;4977953;28;20693;-77
2021/12/06 06:42:52;;;;;;;47.40;24.90;;;;;;;0.04;94.33;101785.13;4963815;28;20267;-77
2021/12/06 06:45:19;;;;;;;48.93;25.67;;;;;;;0.04;94.39;101789.28;4961624;29;20185;-77
2021/12/06 06:47:45;;;;;;;45.17;24.83;;;;;;;0.08;94.13;101782.09;4977849;28;20569;-77
2021/12/06 06:50:11;;;;;;;45.17;23.97;;;;;;;0.12;94.51;101788.22;4960042;29;20201;-78
2021/12/06 06:52:37;;;;;;;44.83;23.63;;;;;;;0.13;94.30;101797.53;4960664;28;20224;-77
2021/12/06 06:55:04;;;;;;;47.33;24.77;;;;;;;0.16;94.06;101797.78;4974751;28;20706;-77
2021/12/06 06:57:30;;;;;;;45.77;23.20;;;;;;;0.16;94.06;101797.78;4961758;28;20177;-77
2021/12/06 06:59:55;;;;;;;44.50;24.10;;;;;;;0.19;94.62;101803.91;4960935;28;20193;-77
2021/12/06 07:02:21;;;;;;;44.83;23.13;;;;;;;0.22;94.44;101798.22;4961831;28;20608;-78
2021/12/06 07:04:46;;;;;;;43.10;23.03;;;;;;;0.24;93.94;101806.78;4960913;28;20185;-76
2021/12/06 07:07:12;;;;;;;47.10;23.53;;;;;;;0.22;94.55;101811.69;4958362;28;20213;-77
2021/12/06 07:09:37;;;;;;;45.73;24.43;;;;;;;0.33;94.66;101804.97;4955431;28;20627;-77
2021/12/06 07:12:05;;;;;;;47.17;24.80;;;;;;;0.37;94.74;101811.09;4968356;28;20231;-76
2021/12/06 07:14:31;;;;;;;46.33;24.03;;;;;;;0.36;94.55;101812.72;4989945;28;20817;-76
2021/12/06 07:16:56;;;;;;;41.47;22.97;;;;;;;0.41;94.37;101792.94;4989173;28;20266;-77
2021/12/06 07:19:21;;;;;;;47.60;24.00;;;;;;;0.41;94.17;101792.94;4978063;28;20226;-77
2021/12/06 07:21:47;;;;;;;42.50;24.10;;;;;;;0.40;94.08;101802.13;4976094;28;20287;-78
2021/12/06 07:24:12;;;;;;;43.40;23.93;;;;;;;0.40;94.77;101804.63;4976718;28;20192;-77
2021/12/06 07:26:38;;;;;;;43.67;23.93;;;;;;;0.37;94.84;101799.38;4980818;28;20180;-77
2021/12/06 07:29:04;;;;;;;42.47;25.43;;;;;;;0.41;94.96;101806.38;4975091;28;20196;-77
2021/12/06 07:31:30;;;;;;;41.90;23.20;;;;;;;0.42;93.87;101807.28;4989003;28;20189;-77
2021/12/06 07:33:56;;;;;;;38.73;22.60;;;;;;;0.46;94.53;101805.06;4971736;28;20188;-77
2021/12/06 07:36:25;;;;;;;43.67;23.43;;;;;;;0.50;94.23;101801.16;4974960;28;20255;-77
2021/12/06 07:38:51;;;;;;;39.17;22.50;;;;;;;0.53;94.25;101799.75;4973630;28;20188;-77
2021/12/06 07:41:21;;;;;;;41.10;22.03;;;;;;;0.56;93.92;101814.22;4973033;28;20258;-77
2021/12/06 07:43:46;;;;;;;43.77;23.13;;;;;;;0.59;94.26;101815.31;4988777;28;20208;-77
2021/12/06 07:46:12;;;;;;;42.40;23.20;;;;;;;0.61;93.37;101815.44;4976955;28;20673;-77
2021/12/06 07:48:38;;;;;;;45.50;23.60;;;;;;;0.66;93.40;101816.63;4962095;28;20204;-77
2021/12/06 07:51:05;;;;;;;39.70;22.57;;;;;;;0.68;93.91;101803.38;4981407;28;20281;-77
2021/12/06 07:53:33;;;;;;;40.47;23.50;;;;;;;0.77;93.34;101805.72;4981329;28;20691;-77
2021/12/06 07:56:00;;;;;;;39.43;22.30;;;;;;;0.82;93.02;101799.38;4994949;28;20315;-76
2021/12/06 07:58:25;;;;;;;35.37;20.50;;;;;;;0.88;93.86;101809.88;4980397;28;20180;-78
2021/12/06 08:00:53;;;;;;;39.90;21.97;;;;;;;0.84;93.78;101807.91;4982569;28;20252;-77
2021/12/06 08:03:22;;;;;;;38.20;22.00;;;;;;;0.92;92.78;101806.84;4965080;28;20267;-77
2021/12/06 08:05:49;;;;;;;34.23;19.90;;;;;;;0.96;93.21;101809.66;4958112;29;20276;-77
2021/12/06 08:08:19;;;;;;;38.27;21.40;;;;;;;1.03;92.81;101808.47;4973751;28;20762;-78
2021/12/06 08:10:47;;;;;;;36.77;21.20;;;;;;;1.05;92.40;101805.28;4972689;28;20189;-77
2021/12/06 08:13:16;;;;;;;38.90;21.37;;;;;;;1.12;92.69;101804.09;4958280;28;20205;-77
2021/12/06 08:15:43;;;;;;;36.60;20.27;;;;;;;1.15;92.94;101802.66;4953833;28;20751;-77
2021/12/06 08:18:09;;;;;;;36.60;21.03;;;;;;;1.21;91.54;101804.75;4956876;28;20177;-77
2021/12/06 08:20:35;;;;;;;36.73;21.53;;;;;;;1.20;91.76;101806.41;4957332;28;20197;-77
2021/12/06 08:23:01;;;;;;;33.97;19.87;;;;;;;1.29;91.44;101806.19;4954914;28;20952;-72
2021/12/06 08:25:26;;;;;;;35.30;20.07;;;;;;;1.43;91.03;101808.94;4953508;28;20193;-76
2021/12/06 08:27:52;;;;;;;34.83;19.67;;;;;;;1.45;91.44;101812.41;4953528;28;20910;-77
2021/12/06 08:30:22;;;;;;;31.20;19.27;;;;;;;1.47;90.59;101813.38;4935961;28;20671;-77
2021/12/06 08:32:50;;;;;;;31.93;19.27;;;;;;;1.48;90.41;101812.66;4943383;29;20212;-75
2021/12/06 08:35:15;;;;;;;34.67;20.57;;;;;;;1.51;90.06;101814.50;4943234;28;20211;-76
2021/12/06 08:37:41;;;;;;;33.30;18.87;;;;;;;1.61;89.96;101817.75;4949318;28;20283;-77
2021/12/06 08:40:07;;;;;;;31.67;18.47;;;;;;;1.81;89.57;101817.53;4947312;28;20252;-77
2021/12/06 08:42:33;;;;;;;27.97;17.97;;;;;;;1.84;89.39;101815.19;4948808;28;20213;-76
2021/12/06 08:44:58;;;;;;;30.27;18.10;;;;;;;1.73;89.13;101821.16;4943834;28;20728;-76
2021/12/06 08:47:24;;;;;;;32.67;18.63;;;;;;;1.82;88.23;101826.84;4948428;28;20259;-78
2021/12/06 08:49:50;;;;;;;30.33;19.00;;;;;;;1.94;88.14;101812.56;4949377;28;20304;-78
2021/12/06 08:52:16;;;;;;;33.67;21.43;;;;;;;2.05;87.21;101820.84;4955829;28;20635;-75
2021/12/06 08:54:42;;;;;;;39.07;23.53;;;;;;;2.16;87.50;101808.16;4962788;28;20201;-76
2021/12/06 08:57:07;;;;;;;40.73;26.03;;;;;;;2.26;87.31;101805.47;4965895;28;20280;-77
2021/12/06 08:59:33;;;;;;;44.90;26.37;;;;;;;2.29;86.95;101802.31;4950711;28;20299;-76
2021/12/06 09:01:58;;;;;;;45.67;24.83;;;;;;;2.44;86.72;101808.38;4950464;28;20243;-77
2021/12/06 09:04:31;;;;;;;33.07;20.43;;;;;;;2.35;86.66;101800.19;4942432;28;20225;-76
2021/12/06 09:06:58;;;;;;;31.40;18.43;;;;;;;2.52;86.91;101789.56;4946075;29;20201;-76
2021/12/06 09:09:27;;;;;;;27.43;17.93;;;;;;;2.71;85.55;101784.94;4949090;28;20625;-76
2021/12/06 09:11:53;;;;;;;29.30;18.70;;;;;;;2.50;85.50;101778.47;4964335;28;20224;-76
2021/12/06 09:14:18;;;;;;;28.57;17.47;;;;;;;2.60;85.57;101780.81;4949762;28;20189;-77
2021/12/06 09:16:45;;;;;;;31.07;18.27;;;;;;;2.78;84.51;101782.91;4946063;28;20275;-77
2021/12/06 09:19:12;;;;;;;32.43;18.27;;;;;;;2.80;84.34;101788.06;4937554;29;20204;-78
2021/12/06 09:21:38;;;;;;;28.17;17.37;;;;;;;2.92;84.48;101781.25;4952233;28;20248;-77
2021/12/06 09:24:06;;;;;;;30.17;18.63;;;;;;;2.73;84.57;101791.84;4949979;29;20197;-76
2021/12/06 09:26:32;;;;;;;31.47;18.70;;;;;;;2.56;84.56;101784.81;4949475;28;20204;-77
2021/12/06 09:28:58;;;;;;;30.30;19.10;;;;;;;2.46;85.59;101784.97;4948659;28;20185;-76
2021/12/06 09:31:24;;;;;;;31.40;19.40;;;;;;;2.50;86.47;101778.47;4964257;28;20189;-77
2021/12/06 09:33:49;;;;;;;31.53;20.57;;;;;;;2.58;86.00;101780.72;4948063;28;20213;-77
2021/12/06 09:36:18;;;;;;;31.13;20.23;;;;;;;2.64;85.55;101781.13;4949530;28;20417;-76
2021/12/06 09:38:44;;;;;;;30.47;19.00;;;;;;;3.15;83.84;101776.91;4959161;28;20244;-76
2021/12/06 09:41:21;;;;;;;32.10;19.67;;;;;;;3.31;83.32;101778.75;4964266;28;20200;-77
2021/12/06 09:43:47;;;;;;;29.47;19.00;;;;;;;2.96;84.04;101773.97;4943590;29;20224;-77
2021/12/06 09:46:13;;;;;;;30.87;19.40;;;;;;;2.88;84.32;101782.72;4951584;28;20197;-78
2021/12/06 09:48:42;;;;;;;31.80;19.70;;;;;;;2.82;84.06;101782.34;4957670;28;20228;-78
2021/12/06 09:51:11;;;;;;;28.70;18.47;;;;;;;2.74;84.74;101795.22;4956091;29;20306;-78
2021/12/06 09:53:40;;;;;;;29.63;19.07;;;;;;;2.60;85.25;101788.41;4956020;28;20236;-76
2021/12/06 09:56:09;;;;;;;37.77;20.27;;;;;;;2.45;85.93;101795.88;4957949;28;20574;-77
2021/12/06 09:58:35;;;;;;;31.07;19.33;;;;;;;2.24;86.59;101802.00;4955452;29;20727;-77
2021/12/06 10:01:07;;;;;;;30.53;18.73;;;;;;;2.29;85.95;101807.38;4954214;28;20185;-76
2021/12/06 10:03:33;;;;;;;29.20;18.83;;;;;;;2.37;86.44;101811.25;4954683;28;20209;-77
2021/12/06 10:06:02;;;;;;;31.23;19.77;;;;;;;2.36;86.26;101807.00;4954264;28;20191;-76
2021/12/06 10:08:33;;;;;;;32.07;19.53;;;;;;;2.37;86.04;101803.69;4954601;29;20328;-78
2021/12/06 10:10:59;;;;;;;34.53;20.93;;;;;;;2.45;85.87;101794.97;4954501;28;20225;-76
2021/12/06 10:13:24;;;;;;;33.83;20.60;;;;;;;2.40;85.91;101794.69;4952109;28;20606;-75
2021/12/06 10:15:52;;;;;;;37.37;22.30;;;;;;;2.35;86.23;101790.09;4953424;28;20325;-77
2021/12/06 10:18:19;;;;;;;30.37;19.93;;;;;;;2.33;86.86;101789.97;4952379;28;20201;-76
2021/12/06 10:20:46;;;;;;;35.07;22.10;;;;;;;2.19;86.95;101789.81;4952233;28;20201;-75
2021/12/06 10:23:12;;;;;;;37.77;22.20;;;;;;;2.11;86.43;101796.88;4952286;28;20208;-76
2021/12/06 10:25:43;;;;;;;37.87;22.70;;;;;;;2.19;87.27;101792.34;4968535;28;20227;-77
2021/12/06 10:28:09;;;;;;;36.60;22.03;;;;;;;2.14;87.25;101804.69;4952361;28;20220;-76
2021/12/06 10:30:39;;;;;;;36.23;21.67;;;;;;;2.08;87.00;101808.44;4950766;28;20690;-75
2021/12/06 10:33:15;;;;;;;37.10;22.20;;;;;;;2.14;87.39;101798.75;4954527;28;20705;-77
2021/12/06 10:35:47;;;;;;;38.57;23.17;;;;;;;2.22;87.67;101800.13;4954585;28;20745;-77
2021/12/06 10:38:21;;;;;;;36.40;21.83;;;;;;;2.25;87.15;101798.69;4956865;28;20663;-78
2021/12/06 10:40:46;;;;;;;33.93;21.43;;;;;;;2.21;86.94;101803.44;4956705;28;20185;-78
2021/12/06 10:43:12;;;;;;;38.40;23.80;;;;;;;2.04;86.73;101804.84;4957660;28;20205;-77
2021/12/06 10:45:42;;;;;;;41.13;24.03;;;;;;;1.87;87.47;101800.25;4957321;28;20192;-78
2021/12/06 10:48:17;;;;;;;44.37;26.23;;;;;;;1.97;88.29;101796.75;4955583;28;20221;-78
2021/12/06 10:50:59;;;;;;;41.30;26.30;;;;;;;1.95;87.91;101799.16;4955936;28;20197;-77
2021/12/06 10:53:36;;;;;;;43.13;24.67;;;;;;;1.88;88.31;101791.06;4940324;28;20217;-77
2021/12/06 10:56:02;;;;;;;46.33;25.90;;;;;;;1.90;87.46;101772.72;4968552;28;20205;-77
2021/12/06 10:58:30;;;;;;;45.20;27.20;;;;;;;1.97;88.47;101764.78;4952252;28;20264;-77
2021/12/06 11:01:02;;;;;;;39.70;25.17;;;;;;;1.99;87.76;101767.41;4955085;28;20280;-78
2021/12/06 11:03:32;;;;;;;42.90;25.10;;;;;;;1.88;88.33;101759.09;4952893;28;20213;-77
2021/12/06 11:06:03;;;;;;;46.10;26.30;;;;;;;1.82;88.19;101751.13;4970009;28;20628;-77
2021/12/06 11:08:31;;;;;;;43.83;25.23;;;;;;;1.70;87.63;101759.50;4956475;29;20193;-78
2021/12/06 11:11:01;;;;;;;42.00;24.43;;;;;;;1.71;88.25;101753.69;4956571;28;20209;-77
2021/12/06 11:13:33;;;;;;;48.27;26.73;;;;;;;1.78;88.65;101744.09;4957437;28;20691;-78
2021/12/06 11:16:07;;;;;;;42.43;25.67;;;;;;;1.76;87.66;101740.59;4955959;29;20217;-77
2021/12/06 11:18:36;;;;;;;48.53;26.90;;;;;;;1.72;88.79;101732.69;4955091;29;20722;-77
2021/12/06 11:21:12;;;;;;;44.67;25.93;;;;;;;1.71;88.45;101731.84;4955299;29;20201;-77
2021/12/06 11:23:55;;;;;;;49.37;28.07;;;;;;;1.67;89.14;101719.78;4954304;28;20216;-77
2021/12/06 11:26:20;;;;;;;43.97;27.10;;;;;;;1.61;88.47;101714.31;4955589;29;20204;-77